Time;durP1;ratioP1;P1;durP2;ratioP2;P2;SDS_P1;SDS_P2;PMS_P1;PMS_P2;Temp;Humidity;BMP_temperature;BMP_pressure;BME280_temperature;BME280_humidity;BME280_pressure;Samples;Min_cycle;Max_cycle;Signal;HPM_P1;HPM_P2
2024/03/21 00:00:24;;;;;;;3.33;2.30;;;;;;;;;;4988463;28;20080;-60
2024/03/21 00:02:50;;;;;;;2.72;1.92;;;;;;;;;;4988137;28;20039;-62
2024/03/21 00:05:16;;;;;;;2.85;2.20;;;;;;;;;;5002816;28;20030;-62
2024/03/21 00:07:45;;;;;;;2.70;1.95;;;;;;;;;;4988109;28;20023;-62
2024/03/21 00:10:11;;;;;;;2.85;2.30;;;;;;;;;;5000054;28;20010;-61
2024/03/21 00:12:36;;;;;;;3.22;2.35;;;;;;;;;;5003777;28;20022;-61
2024/03/21 00:15:01;;;;;;;3.08;2.00;;;;;;;;;;4990234;28;20030;-62
2024/03/21 00:17:27;;;;;;;2.88;2.38;;;;;;;;;;4998619;28;20018;-62
2024/03/21 00:19:52;;;;;;;3.63;2.17;;;;;;;;;;4997253;28;20030;-62
2024/03/21 00:22:17;;;;;;;3.38;2.50;;;;;;;;;;4993156;28;20026;-63
2024/03/21 00:24:43;;;;;;;3.78;2.30;;;;;;;;;;5001844;28;20030;-62
2024/03/21 00:27:08;;;;;;;2.22;1.67;;;;;;;;;;5007256;28;20065;-62
2024/03/21 00:29:33;;;;;;;2.95;2.05;;;;;;;;;;5001750;28;20409;-62
2024/03/21 00:31:59;;;;;;;2.40;1.80;;;;;;;;;;5007024;28;20022;-62
2024/03/21 00:34:25;;;;;;;2.42;1.90;;;;;;;;;;5007068;28;20092;-62
2024/03/21 00:36:50;;;;;;;3.03;1.92;;;;;;;;;;5005914;28;20096;-62
2024/03/21 00:39:24;;;;;;;3.05;2.35;;;;;;;;;;5003393;28;20125;-62
2024/03/21 00:41:49;;;;;;;2.60;2.03;;;;;;;;;;4991316;28;20035;-62
2024/03/21 00:44:15;;;;;;;3.92;2.30;;;;;;;;;;4996154;28;20111;-61
2024/03/21 00:46:40;;;;;;;2.75;2.22;;;;;;;;;;4987786;28;20065;-61
2024/03/21 00:49:06;;;;;;;3.75;2.17;;;;;;;;;;4994079;28;20048;-62
2024/03/21 00:51:34;;;;;;;3.03;2.30;;;;;;;;;;5003535;28;20052;-62
2024/03/21 00:53:59;;;;;;;3.20;2.28;;;;;;;;;;4996449;28;20041;-62
2024/03/21 00:56:25;;;;;;;3.33;2.08;;;;;;;;;;4999074;28;20030;-62
2024/03/21 00:58:50;;;;;;;2.40;2.10;;;;;;;;;;4993306;28;20494;-62
2024/03/21 01:01:15;;;;;;;3.85;2.25;;;;;;;;;;5001894;28;20054;-63
2024/03/21 01:03:41;;;;;;;2.97;2.13;;;;;;;;;;4985686;28;20080;-61
2024/03/21 01:06:06;;;;;;;2.28;1.80;;;;;;;;;;4987507;28;20081;-62
2024/03/21 01:08:31;;;;;;;3.08;2.05;;;;;;;;;;5020122;28;20076;-62
2024/03/21 01:10:57;;;;;;;3.33;2.40;;;;;;;;;;5005812;28;20034;-62
2024/03/21 01:13:22;;;;;;;3.15;2.10;;;;;;;;;;5006536;28;20030;-61
2024/03/21 01:15:47;;;;;;;2.83;2.10;;;;;;;;;;5038379;28;20041;-62
2024/03/21 01:18:13;;;;;;;3.15;1.90;;;;;;;;;;5000320;28;20130;-63
2024/03/21 01:20:41;;;;;;;3.33;2.40;;;;;;;;;;5001982;28;20042;-61
2024/03/21 01:23:07;;;;;;;2.50;1.85;;;;;;;;;;4989693;28;20088;-62
2024/03/21 01:25:32;;;;;;;2.78;2.00;;;;;;;;;;5006117;28;20474;-61
2024/03/21 01:27:58;;;;;;;2.72;2.10;;;;;;;;;;5004770;28;20129;-62
2024/03/21 01:30:23;;;;;;;2.50;2.00;;;;;;;;;;4988624;28;20142;-62
2024/03/21 01:32:49;;;;;;;2.75;2.20;;;;;;;;;;5034933;28;20079;-62
2024/03/21 01:35:14;;;;;;;2.97;2.22;;;;;;;;;;5006100;28;20034;-62
2024/03/21 01:37:39;;;;;;;3.20;2.00;;;;;;;;;;4998545;28;20058;-62
2024/03/21 01:40:06;;;;;;;2.70;2.00;;;;;;;;;;5002773;28;20058;-62
2024/03/21 01:42:32;;;;;;;3.88;2.20;;;;;;;;;;4998676;28;20116;-62
2024/03/21 01:45:01;;;;;;;2.95;2.03;;;;;;;;;;5005883;28;20510;-62
2024/03/21 01:47:27;;;;;;;3.22;2.40;;;;;;;;;;5004517;28;20414;-62
2024/03/21 01:49:53;;;;;;;3.65;2.28;;;;;;;;;;5003196;28;20092;-62
2024/03/21 01:52:18;;;;;;;2.58;2.03;;;;;;;;;;5005380;28;20409;-62
2024/03/21 01:54:44;;;;;;;3.03;2.00;;;;;;;;;;4989499;28;20027;-62
2024/03/21 01:57:09;;;;;;;3.05;2.00;;;;;;;;;;4993085;28;20042;-63
2024/03/21 01:59:34;;;;;;;2.88;2.00;;;;;;;;;;4984661;28;20379;-63
2024/03/21 02:02:00;;;;;;;3.15;2.35;;;;;;;;;;4986553;28;20042;-62
2024/03/21 02:04:25;;;;;;;3.20;2.10;;;;;;;;;;4986113;28;20057;-62
2024/03/21 02:06:52;;;;;;;3.17;2.17;;;;;;;;;;4985786;28;20469;-61
2024/03/21 02:09:21;;;;;;;2.97;2.10;;;;;;;;;;5004779;28;20050;-62
2024/03/21 02:11:47;;;;;;;3.28;2.45;;;;;;;;;;4997762;28;20030;-62
2024/03/21 02:14:12;;;;;;;3.08;2.05;;;;;;;;;;5005441;28;20065;-63
2024/03/21 02:16:37;;;;;;;3.03;2.10;;;;;;;;;;5002406;28;20046;-62
2024/03/21 02:19:02;;;;;;;2.78;1.92;;;;;;;;;;4998498;28;20049;-64
2024/03/21 02:24:11;;;;;;;2.70;2.20;;;;;;;;;;5004919;28;20438;-62
2024/03/21 02:26:37;;;;;;;3.50;2.15;;;;;;;;;;4992153;28;20034;-62
2024/03/21 02:29:04;;;;;;;2.55;2.15;;;;;;;;;;4985303;28;20034;-61
2024/03/21 02:31:29;;;;;;;3.50;2.28;;;;;;;;;;4997921;28;20121;-62
2024/03/21 02:33:55;;;;;;;2.97;2.28;;;;;;;;;;4993242;28;20169;-62
2024/03/21 02:36:20;;;;;;;2.72;2.20;;;;;;;;;;4986316;28;20071;-62
2024/03/21 02:38:45;;;;;;;3.38;2.30;;;;;;;;;;5001297;28;20514;-62
2024/03/21 02:41:11;;;;;;;3.17;2.15;;;;;;;;;;4994434;28;20129;-62
2024/03/21 02:43:36;;;;;;;3.30;2.38;;;;;;;;;;4996320;28;20799;-62
2024/03/21 02:46:01;;;;;;;2.60;2.17;;;;;;;;;;4985733;28;20066;-62
2024/03/21 02:48:27;;;;;;;3.28;2.22;;;;;;;;;;4985519;28;20064;-62
2024/03/21 02:50:52;;;;;;;2.75;2.15;;;;;;;;;;4994253;28;20522;-62
2024/03/21 02:53:17;;;;;;;2.55;1.90;;;;;;;;;;4995572;28;20033;-62
2024/03/21 02:55:43;;;;;;;2.80;2.15;;;;;;;;;;4997965;28;20391;-62
2024/03/21 02:58:08;;;;;;;3.17;2.20;;;;;;;;;;4990978;28;20072;-61
2024/03/21 03:00:33;;;;;;;2.92;2.28;;;;;;;;;;5004010;28;20060;-62
2024/03/21 03:02:59;;;;;;;3.33;2.10;;;;;;;;;;4993237;28;20398;-62
2024/03/21 03:05:24;;;;;;;3.30;2.28;;;;;;;;;;5004737;28;20072;-61
2024/03/21 03:07:49;;;;;;;2.85;2.00;;;;;;;;;;5007881;28;20034;-62
2024/03/21 03:10:15;;;;;;;3.90;2.38;;;;;;;;;;5003561;28;20116;-61
2024/03/21 03:12:40;;;;;;;2.88;2.05;;;;;;;;;;4992114;28;20053;-62
2024/03/21 03:15:05;;;;;;;3.92;2.33;;;;;;;;;;4991018;28;20041;-62
2024/03/21 03:17:31;;;;;;;3.20;2.15;;;;;;;;;;5009340;28;20567;-62
2024/03/21 03:19:56;;;;;;;2.75;1.92;;;;;;;;;;4989952;28;20051;-62
2024/03/21 03:22:22;;;;;;;2.92;2.10;;;;;;;;;;5038493;28;20533;-61
2024/03/21 03:24:47;;;;;;;3.45;2.40;;;;;;;;;;4989299;28;20042;-61
2024/03/21 03:27:12;;;;;;;3.25;2.40;;;;;;;;;;5007982;28;20099;-61
2024/03/21 03:29:37;;;;;;;3.53;2.50;;;;;;;;;;5006635;28;20034;-63
2024/03/21 03:32:03;;;;;;;2.95;2.17;;;;;;;;;;4992719;28;20143;-62
2024/03/21 03:37:12;;;;;;;2.65;2.00;;;;;;;;;;5005061;28;20095;-62
2024/03/21 03:39:38;;;;;;;2.63;2.10;;;;;;;;;;4997398;28;20492;-62
2024/03/21 03:42:03;;;;;;;2.90;2.33;;;;;;;;;;4999385;28;20506;-62
2024/03/21 03:44:29;;;;;;;3.20;2.20;;;;;;;;;;5005101;28;20034;-62
2024/03/21 03:46:54;;;;;;;3.20;2.38;;;;;;;;;;5007967;28;20447;-62
2024/03/21 03:49:19;;;;;;;3.33;2.03;;;;;;;;;;5007734;28;20042;-62
2024/03/21 03:51:44;;;;;;;2.53;2.00;;;;;;;;;;4996419;28;20498;-62
2024/03/21 03:54:10;;;;;;;3.08;2.10;;;;;;;;;;5018878;28;20057;-62
2024/03/21 03:56:35;;;;;;;2.88;2.20;;;;;;;;;;4997616;28;20093;-63
2024/03/21 03:59:00;;;;;;;3.28;2.30;;;;;;;;;;5006435;28;20133;-62
2024/03/21 04:01:26;;;;;;;3.47;2.25;;;;;;;;;;4999662;28;20041;-60
2024/03/21 04:03:51;;;;;;;2.88;2.00;;;;;;;;;;4989680;28;20038;-60
2024/03/21 04:06:16;;;;;;;3.50;2.38;;;;;;;;;;5004420;28;20046;-61
2024/03/21 04:08:41;;;;;;;2.88;2.20;;;;;;;;;;4991451;28;20050;-61
2024/03/21 04:11:08;;;;;;;2.65;2.25;;;;;;;;;;4999417;28;20057;-60
2024/03/21 04:13:34;;;;;;;3.50;2.22;;;;;;;;;;4990664;28;20034;-62
2024/03/21 04:15:59;;;;;;;2.88;2.28;;;;;;;;;;4995574;28;20466;-60
2024/03/21 04:18:24;;;;;;;3.05;2.10;;;;;;;;;;5000484;28;20040;-62
2024/03/21 04:20:50;;;;;;;2.83;2.28;;;;;;;;;;4995848;28;20045;-62
2024/03/21 04:23:15;;;;;;;3.22;2.22;;;;;;;;;;5007489;28;20038;-61
2024/03/21 04:25:41;;;;;;;2.47;1.92;;;;;;;;;;5007190;28;20038;-62
2024/03/21 04:28:06;;;;;;;3.70;2.30;;;;;;;;;;5007050;28;20038;-63
2024/03/21 04:30:32;;;;;;;3.22;2.40;;;;;;;;;;5003282;28;20117;-63
2024/03/21 04:32:58;;;;;;;3.47;2.25;;;;;;;;;;5005710;28;20062;-63
2024/03/21 04:35:23;;;;;;;2.85;2.13;;;;;;;;;;5003720;28;20068;-61
2024/03/21 04:37:49;;;;;;;2.70;2.10;;;;;;;;;;4999842;28;20038;-61
2024/03/21 04:40:14;;;;;;;2.90;2.38;;;;;;;;;;5005041;28;20096;-62
2024/03/21 04:42:39;;;;;;;2.72;2.17;;;;;;;;;;5000017;28;20414;-61
2024/03/21 04:45:05;;;;;;;2.70;2.20;;;;;;;;;;4989150;28;20573;-62
2024/03/21 04:47:31;;;;;;;3.72;2.33;;;;;;;;;;5005876;28;20581;-63
2024/03/21 04:49:56;;;;;;;3.45;2.30;;;;;;;;;;4991793;28;20030;-62
2024/03/21 04:52:22;;;;;;;4.00;2.50;;;;;;;;;;4991062;28;20037;-61
2024/03/21 04:54:48;;;;;;;2.88;2.10;;;;;;;;;;4994520;28;20041;-61
2024/03/21 04:57:13;;;;;;;3.03;2.35;;;;;;;;;;4997869;28;20378;-62
2024/03/21 04:59:39;;;;;;;2.88;2.28;;;;;;;;;;4998963;28;20045;-60
2024/03/21 05:02:04;;;;;;;4.05;2.30;;;;;;;;;;4998038;28;20131;-61
2024/03/21 05:04:29;;;;;;;3.45;2.20;;;;;;;;;;4999101;28;20282;-61
2024/03/21 05:06:55;;;;;;;3.60;2.60;;;;;;;;;;4999562;28;20038;-61
2024/03/21 05:09:21;;;;;;;3.00;2.30;;;;;;;;;;4997691;28;20057;-61
2024/03/21 05:11:46;;;;;;;3.03;1.90;;;;;;;;;;4999075;28;20049;-62
2024/03/21 05:14:11;;;;;;;3.40;2.03;;;;;;;;;;5000170;28;20029;-62
2024/03/21 05:16:37;;;;;;;3.55;2.25;;;;;;;;;;5000193;28;20057;-62
2024/03/21 05:19:02;;;;;;;3.33;2.30;;;;;;;;;;4998994;28;23932;-61
2024/03/21 05:21:27;;;;;;;4.00;2.20;;;;;;;;;;4999117;28;20133;-62
2024/03/21 05:23:52;;;;;;;3.50;1.92;;;;;;;;;;4998397;28;20037;-62
2024/03/21 05:26:18;;;;;;;3.17;2.17;;;;;;;;;;4998028;28;22049;-62
2024/03/21 05:28:43;;;;;;;2.78;1.95;;;;;;;;;;4997917;28;20048;-63
2024/03/21 05:31:21;;;;;;;2.83;2.20;;;;;;;;;;4996709;28;20044;-62
2024/03/21 05:33:47;;;;;;;2.95;2.03;;;;;;;;;;4999048;28;20539;-62
2024/03/21 05:36:12;;;;;;;2.78;2.28;;;;;;;;;;4999227;28;20065;-62
2024/03/21 05:38:37;;;;;;;2.90;2.13;;;;;;;;;;4998775;28;20033;-62
2024/03/21 05:41:03;;;;;;;3.45;2.10;;;;;;;;;;4998074;28;20048;-62
2024/03/21 05:43:28;;;;;;;2.60;2.03;;;;;;;;;;4998773;28;20113;-62
2024/03/21 05:45:53;;;;;;;3.17;2.35;;;;;;;;;;4998579;28;20045;-62
2024/03/21 05:48:19;;;;;;;3.35;2.38;;;;;;;;;;4997930;28;20129;-62
2024/03/21 05:50:44;;;;;;;2.80;2.35;;;;;;;;;;4998088;28;20053;-62
2024/03/21 05:53:09;;;;;;;4.13;2.53;;;;;;;;;;4998395;28;20046;-66
2024/03/21 05:55:34;;;;;;;4.00;2.33;;;;;;;;;;4998607;28;20038;-63
2024/03/21 05:58:00;;;;;;;3.22;2.45;;;;;;;;;;4998647;28;20121;-63
2024/03/21 06:00:25;;;;;;;2.90;2.28;;;;;;;;;;4998539;28;20509;-63
2024/03/21 06:02:50;;;;;;;2.78;2.10;;;;;;;;;;4998904;28;20079;-63
2024/03/21 06:05:16;;;;;;;2.95;2.42;;;;;;;;;;4998814;28;20406;-63
2024/03/21 06:07:41;;;;;;;3.38;2.30;;;;;;;;;;4997637;28;20030;-62
2024/03/21 06:10:07;;;;;;;3.22;2.30;;;;;;;;;;4998328;28;20114;-63
2024/03/21 06:12:32;;;;;;;2.92;2.10;;;;;;;;;;4998122;28;20544;-62
2024/03/21 06:14:57;;;;;;;3.85;2.30;;;;;;;;;;4997657;28;20076;-63
2024/03/21 06:17:22;;;;;;;3.00;2.00;;;;;;;;;;4998388;28;20006;-63
2024/03/21 06:19:48;;;;;;;2.70;2.28;;;;;;;;;;4998579;28;20076;-63
2024/03/21 06:22:13;;;;;;;2.60;2.20;;;;;;;;;;4997546;28;20026;-63
2024/03/21 06:24:38;;;;;;;2.80;2.13;;;;;;;;;;4997764;28;20772;-62
2024/03/21 06:27:04;;;;;;;3.03;2.20;;;;;;;;;;4997624;28;20022;-65
2024/03/21 06:29:31;;;;;;;2.75;2.10;;;;;;;;;;4999072;28;20025;-67
2024/03/21 06:31:56;;;;;;;2.80;2.10;;;;;;;;;;4997717;28;20036;-67
2024/03/21 06:34:21;;;;;;;3.53;2.42;;;;;;;;;;4998636;28;20026;-65
2024/03/21 06:36:47;;;;;;;3.40;2.40;;;;;;;;;;4998579;28;20032;-66
2024/03/21 06:39:13;;;;;;;2.45;2.05;;;;;;;;;;4998301;28;20092;-66
2024/03/21 06:41:39;;;;;;;3.40;2.42;;;;;;;;;;4997429;28;20049;-65
2024/03/21 06:44:04;;;;;;;3.20;2.10;;;;;;;;;;5003186;28;20049;-66
2024/03/21 06:46:30;;;;;;;3.67;2.67;;;;;;;;;;5002319;28;20041;-67
2024/03/21 06:48:55;;;;;;;3.28;2.15;;;;;;;;;;5002644;28;20034;-65
2024/03/21 06:51:20;;;;;;;3.72;2.40;;;;;;;;;;5002438;28;20473;-63
2024/03/21 06:53:45;;;;;;;3.17;2.42;;;;;;;;;;5002926;28;20025;-65
2024/03/21 06:56:11;;;;;;;3.33;2.38;;;;;;;;;;5002196;28;20036;-67
2024/03/21 06:58:36;;;;;;;3.20;2.25;;;;;;;;;;5004528;28;20592;-62
2024/03/21 07:01:02;;;;;;;6.22;2.72;;;;;;;;;;5000820;28;20087;-63
2024/03/21 07:03:27;;;;;;;3.80;2.25;;;;;;;;;;5001269;28;20425;-62
2024/03/21 07:05:53;;;;;;;4.60;2.60;;;;;;;;;;5002003;28;20037;-62
2024/03/21 07:08:18;;;;;;;4.78;2.70;;;;;;;;;;5000792;28;20029;-62
2024/03/21 07:10:44;;;;;;;3.15;2.20;;;;;;;;;;5001705;28;20386;-62
2024/03/21 07:13:10;;;;;;;4.15;2.47;;;;;;;;;;5002557;28;20091;-62
2024/03/21 07:15:39;;;;;;;3.58;2.67;;;;;;;;;;5000355;28;20412;-62
2024/03/21 07:18:05;;;;;;;3.72;2.70;;;;;;;;;;5001519;28;20512;-62
2024/03/21 07:20:30;;;;;;;4.07;2.70;;;;;;;;;;5001134;28;20038;-63
2024/03/21 07:22:55;;;;;;;4.05;2.65;;;;;;;;;;5003146;28;20091;-60
2024/03/21 07:25:20;;;;;;;4.40;2.70;;;;;;;;;;5001824;28;20421;-61
2024/03/21 07:27:47;;;;;;;3.40;2.53;;;;;;;;;;5002185;28;20084;-60
2024/03/21 07:30:15;;;;;;;3.88;2.72;;;;;;;;;;5001760;28;20852;-60
2024/03/21 07:32:41;;;;;;;3.85;2.72;;;;;;;;;;5004840;28;20029;-61
2024/03/21 07:35:06;;;;;;;4.15;2.60;;;;;;;;;;5005455;28;20034;-61
2024/03/21 07:37:32;;;;;;;3.88;2.67;;;;;;;;;;5002177;28;20108;-61
2024/03/21 07:40:01;;;;;;;3.95;2.47;;;;;;;;;;5000780;28;20111;-60
2024/03/21 07:42:27;;;;;;;3.75;2.70;;;;;;;;;;5002852;28;20552;-62
2024/03/21 07:44:52;;;;;;;4.13;2.95;;;;;;;;;;5004265;28;20117;-61
2024/03/21 07:47:17;;;;;;;4.93;2.67;;;;;;;;;;5004172;28;20056;-60
2024/03/21 07:49:43;;;;;;;3.97;2.45;;;;;;;;;;5001910;28;20034;-61
2024/03/21 07:52:08;;;;;;;4.95;2.40;;;;;;;;;;5000748;28;20122;-61
2024/03/21 07:54:33;;;;;;;4.65;2.92;;;;;;;;;;5001509;28;20117;-61
2024/03/21 07:56:59;;;;;;;5.22;3.10;;;;;;;;;;5001796;28;20508;-61
2024/03/21 07:59:24;;;;;;;5.90;2.58;;;;;;;;;;5000569;28;20037;-61
2024/03/21 08:01:50;;;;;;;3.88;2.80;;;;;;;;;;5003351;28;20045;-61
2024/03/21 08:04:15;;;;;;;5.22;3.10;;;;;;;;;;5002067;28;20034;-60
2024/03/21 08:06:41;;;;;;;3.58;2.60;;;;;;;;;;5002230;28;20033;-60
2024/03/21 08:09:06;;;;;;;4.13;2.90;;;;;;;;;;5000924;28;20037;-60
2024/03/21 08:11:31;;;;;;;3.67;2.72;;;;;;;;;;4993231;28;20124;-61
2024/03/21 08:13:57;;;;;;;3.60;2.60;;;;;;;;;;4999367;28;20041;-61
2024/03/21 08:16:22;;;;;;;3.17;2.55;;;;;;;;;;5001420;28;20030;-61
2024/03/21 08:18:47;;;;;;;3.80;2.53;;;;;;;;;;5001167;28;20637;-60
2024/03/21 08:21:14;;;;;;;3.60;2.78;;;;;;;;;;5000898;28;20421;-61
2024/03/21 08:23:39;;;;;;;4.07;2.60;;;;;;;;;;5000347;28;20030;-61
2024/03/21 08:26:04;;;;;;;4.68;2.80;;;;;;;;;;4994169;28;20100;-61
2024/03/21 08:28:30;;;;;;;4.13;2.70;;;;;;;;;;5000768;28;20091;-61
2024/03/21 08:30:55;;;;;;;4.53;2.88;;;;;;;;;;5000212;28;20037;-61
2024/03/21 08:33:21;;;;;;;3.17;2.47;;;;;;;;;;4994791;28;20243;-62
2024/03/21 08:35:46;;;;;;;5.10;2.97;;;;;;;;;;5000758;28;20660;-61
2024/03/21 08:38:11;;;;;;;3.92;2.67;;;;;;;;;;4996137;28;20034;-61
2024/03/21 08:40:37;;;;;;;5.53;2.53;;;;;;;;;;4994737;28;20042;-61
2024/03/21 08:43:02;;;;;;;3.40;2.55;;;;;;;;;;4989782;28;20615;-61
2024/03/21 08:45:28;;;;;;;4.38;2.60;;;;;;;;;;5006136;28;20034;-61
2024/03/21 08:47:53;;;;;;;3.58;2.70;;;;;;;;;;5007183;28;20026;-60
2024/03/21 08:50:19;;;;;;;4.05;2.60;;;;;;;;;;5007059;28;20790;-61
2024/03/21 08:52:44;;;;;;;4.75;2.83;;;;;;;;;;4990215;28;20049;-61
2024/03/21 08:55:09;;;;;;;3.95;2.80;;;;;;;;;;5006627;28;20540;-62
2024/03/21 08:57:35;;;;;;;3.63;2.70;;;;;;;;;;5000032;28;20057;-61
2024/03/21 09:00:01;;;;;;;4.95;2.92;;;;;;;;;;4987258;28;20510;-61
2024/03/21 09:02:26;;;;;;;3.88;2.60;;;;;;;;;;4986947;28;20035;-61
2024/03/21 09:04:52;;;;;;;4.30;2.70;;;;;;;;;;5003337;28;20111;-60
2024/03/21 09:07:17;;;;;;;4.43;2.78;;;;;;;;;;5006897;28;20597;-61
2024/03/21 09:09:42;;;;;;;4.00;2.83;;;;;;;;;;5006622;28;20038;-64
2024/03/21 09:12:07;;;;;;;4.38;3.13;;;;;;;;;;5006338;28;20057;-62
2024/03/21 09:14:33;;;;;;;4.03;2.78;;;;;;;;;;5006085;28;20512;-62
2024/03/21 09:16:58;;;;;;;3.95;2.78;;;;;;;;;;5004655;28;20458;-63
2024/03/21 09:19:24;;;;;;;4.65;2.70;;;;;;;;;;4998397;28;20060;-61
2024/03/21 09:21:49;;;;;;;4.82;2.70;;;;;;;;;;5003517;28;20048;-62
2024/03/21 09:24:15;;;;;;;4.40;2.63;;;;;;;;;;5004039;28;20144;-61
2024/03/21 09:26:41;;;;;;;4.50;2.83;;;;;;;;;;5006726;28;20038;-60
2024/03/21 09:29:07;;;;;;;3.83;2.40;;;;;;;;;;5005586;28;20087;-61
2024/03/21 09:31:32;;;;;;;4.20;2.75;;;;;;;;;;5006079;28;20037;-61
2024/03/21 09:33:58;;;;;;;4.40;2.45;;;;;;;;;;5006039;28;20037;-61
2024/03/21 09:36:23;;;;;;;3.42;2.60;;;;;;;;;;5006456;28;20046;-61
2024/03/21 09:38:49;;;;;;;3.92;2.60;;;;;;;;;;4988811;28;20121;-61
2024/03/21 09:41:16;;;;;;;3.70;2.38;;;;;;;;;;4986320;28;20038;-61
2024/03/21 09:43:41;;;;;;;3.35;2.38;;;;;;;;;;4984521;28;20066;-61
2024/03/21 09:46:07;;;;;;;5.38;2.38;;;;;;;;;;5001774;28;20132;-61
2024/03/21 09:48:32;;;;;;;3.78;2.90;;;;;;;;;;5004888;28;20182;-61
2024/03/21 09:50:58;;;;;;;4.32;2.40;;;;;;;;;;4987872;28;20084;-61
2024/03/21 09:53:23;;;;;;;3.90;2.47;;;;;;;;;;4988977;28;20034;-60
2024/03/21 09:55:50;;;;;;;3.72;2.30;;;;;;;;;;4994982;28;20036;-60
2024/03/21 09:58:15;;;;;;;4.15;2.60;;;;;;;;;;5005122;28;20032;-61
2024/03/21 10:00:44;;;;;;;3.42;2.10;;;;;;;;;;5006779;28;20124;-60
2024/03/21 10:03:15;;;;;;;4.50;2.30;;;;;;;;;;5005089;28;20069;-60
2024/03/21 10:05:41;;;;;;;3.40;2.40;;;;;;;;;;5003645;28;20084;-60
2024/03/21 10:08:07;;;;;;;3.53;2.63;;;;;;;;;;5004297;28;20472;-60
2024/03/21 10:10:33;;;;;;;2.80;2.10;;;;;;;;;;5002932;28;20034;-60
2024/03/21 10:12:59;;;;;;;3.75;2.08;;;;;;;;;;4991887;28;20038;-60
2024/03/21 10:15:24;;;;;;;3.28;2.10;;;;;;;;;;4990212;28;20093;-60
2024/03/21 10:17:50;;;;;;;3.65;2.20;;;;;;;;;;5005754;28;20061;-60
2024/03/21 10:20:15;;;;;;;3.45;2.15;;;;;;;;;;4997399;28;20513;-61
2024/03/21 10:22:44;;;;;;;4.78;1.90;;;;;;;;;;5005300;28;20042;-60
2024/03/21 10:25:09;;;;;;;3.35;2.10;;;;;;;;;;5005537;28;20124;-61
2024/03/21 10:27:36;;;;;;;3.67;2.30;;;;;;;;;;4997663;28;20121;-61
2024/03/21 10:30:01;;;;;;;3.28;2.33;;;;;;;;;;4984500;28;20030;-62
2024/03/21 10:32:27;;;;;;;2.63;2.05;;;;;;;;;;4991948;28;20411;-61
2024/03/21 10:34:52;;;;;;;2.75;2.00;;;;;;;;;;4986519;28;20046;-61
2024/03/21 10:37:18;;;;;;;3.78;2.33;;;;;;;;;;5004885;28;20635;-62
2024/03/21 10:39:44;;;;;;;3.22;2.30;;;;;;;;;;5005574;28;20033;-61
2024/03/21 10:42:25;;;;;;;4.70;2.10;;;;;;;;;;5005000;28;20481;-59
2024/03/21 10:44:53;;;;;;;8.85;2.47;;;;;;;;;;5004459;28;20033;-60
2024/03/21 10:47:18;;;;;;;6.13;2.17;;;;;;;;;;5004241;28;20037;-61
2024/03/21 10:49:43;;;;;;;5.70;2.20;;;;;;;;;;5004486;28;20030;-61
2024/03/21 10:52:12;;;;;;;4.95;1.80;;;;;;;;;;5005316;28;20105;-63
2024/03/21 10:54:38;;;;;;;9.40;1.88;;;;;;;;;;5004645;28;20049;-63
2024/03/21 10:57:13;;;;;;;5.20;1.92;;;;;;;;;;4990345;28;21815;-61
2024/03/21 10:59:38;;;;;;;4.30;2.00;;;;;;;;;;4990228;28;20524;-61
2024/03/21 11:02:04;;;;;;;4.72;1.90;;;;;;;;;;4996209;28;20075;-61
2024/03/21 11:04:34;;;;;;;4.05;2.10;;;;;;;;;;4998009;28;20038;-61
2024/03/21 11:06:59;;;;;;;5.63;2.08;;;;;;;;;;4990321;28;20045;-61
2024/03/21 11:09:25;;;;;;;4.63;1.95;;;;;;;;;;4998746;28;20026;-61
2024/03/21 11:11:50;;;;;;;5.72;1.92;;;;;;;;;;4998253;28;20069;-62
2024/03/21 11:14:15;;;;;;;3.97;1.90;;;;;;;;;;4994920;28;20042;-62
2024/03/21 11:16:41;;;;;;;5.93;2.30;;;;;;;;;;4991288;28;20038;-62
2024/03/21 11:19:06;;;;;;;5.47;1.90;;;;;;;;;;4996369;28;20034;-61
2024/03/21 11:21:32;;;;;;;4.50;2.30;;;;;;;;;;4997809;28;20779;-61
2024/03/21 11:23:57;;;;;;;3.88;2.17;;;;;;;;;;4998857;28;20042;-60
2024/03/21 11:26:22;;;;;;;4.57;1.92;;;;;;;;;;4998286;28;20037;-61
2024/03/21 11:28:50;;;;;;;3.42;2.00;;;;;;;;;;4999597;28;20057;-60
2024/03/21 11:31:29;;;;;;;5.50;2.15;;;;;;;;;;4993590;28;20046;-60
2024/03/21 11:33:54;;;;;;;6.40;1.90;;;;;;;;;;5000009;28;20557;-60
2024/03/21 11:36:20;;;;;;;3.80;1.80;;;;;;;;;;5000471;28;20030;-61
2024/03/21 11:38:48;;;;;;;6.35;1.95;;;;;;;;;;5001708;28;20476;-63
2024/03/21 11:41:17;;;;;;;7.00;2.20;;;;;;;;;;5005227;28;20053;-65
2024/03/21 11:43:45;;;;;;;4.22;2.13;;;;;;;;;;4999486;28;20387;-60
2024/03/21 11:46:11;;;;;;;4.20;1.70;;;;;;;;;;5001407;28;20033;-61
2024/03/21 11:48:36;;;;;;;5.88;2.00;;;;;;;;;;5001336;28;20435;-62
2024/03/21 11:51:01;;;;;;;4.63;2.05;;;;;;;;;;5002326;28;20030;-61
2024/03/21 11:53:27;;;;;;;3.22;1.70;;;;;;;;;;5002486;28;20538;-61
2024/03/21 11:55:52;;;;;;;4.45;2.08;;;;;;;;;;5003155;28;22132;-61
2024/03/21 11:58:17;;;;;;;3.38;1.92;;;;;;;;;;5003237;28;20544;-61
2024/03/21 12:00:42;;;;;;;3.38;1.90;;;;;;;;;;4995526;28;20065;-62
2024/03/21 12:03:08;;;;;;;3.60;1.88;;;;;;;;;;5003332;28;20017;-61
2024/03/21 12:05:33;;;;;;;3.75;1.90;;;;;;;;;;4998896;28;20036;-61
2024/03/21 12:07:59;;;;;;;3.63;1.90;;;;;;;;;;5001184;28;20042;-62
2024/03/21 12:10:24;;;;;;;3.00;1.75;;;;;;;;;;4999747;28;20473;-61
2024/03/21 12:12:49;;;;;;;4.70;2.17;;;;;;;;;;5000810;28;20481;-61
2024/03/21 12:15:15;;;;;;;2.97;1.80;;;;;;;;;;4998696;28;20049;-62
2024/03/21 12:17:40;;;;;;;4.03;1.80;;;;;;;;;;4999447;28;20068;-61
2024/03/21 12:20:06;;;;;;;3.65;1.88;;;;;;;;;;5000358;28;20080;-61
2024/03/21 12:22:31;;;;;;;2.88;2.00;;;;;;;;;;4998937;28;20033;-61
2024/03/21 12:25:00;;;;;;;3.33;1.90;;;;;;;;;;4997823;28;20032;-61
2024/03/21 12:27:25;;;;;;;2.72;1.77;;;;;;;;;;4997689;28;20029;-61
2024/03/21 12:29:51;;;;;;;5.68;2.08;;;;;;;;;;4997573;28;20422;-61
2024/03/21 12:32:16;;;;;;;3.00;1.67;;;;;;;;;;4998915;28;20351;-61
2024/03/21 12:34:42;;;;;;;4.45;2.00;;;;;;;;;;4998586;28;20045;-61
2024/03/21 12:37:09;;;;;;;3.22;1.83;;;;;;;;;;4998796;28;20038;-62
2024/03/21 12:39:35;;;;;;;2.25;1.55;;;;;;;;;;4999972;28;20026;-62
2024/03/21 12:42:02;;;;;;;2.97;1.75;;;;;;;;;;5001104;28;22165;-62
2024/03/21 12:44:27;;;;;;;3.65;1.90;;;;;;;;;;4999861;28;20121;-61
2024/03/21 12:46:53;;;;;;;3.28;1.60;;;;;;;;;;4998682;28;20429;-62
2024/03/21 12:49:18;;;;;;;4.93;1.88;;;;;;;;;;5000903;28;20038;-62
2024/03/21 12:51:44;;;;;;;3.92;1.60;;;;;;;;;;4999333;28;20069;-60
2024/03/21 12:54:09;;;;;;;2.90;1.70;;;;;;;;;;4999026;28;20041;-60
2024/03/21 12:56:36;;;;;;;3.10;1.80;;;;;;;;;;4999391;28;20341;-61
2024/03/21 12:59:01;;;;;;;3.60;1.90;;;;;;;;;;4998080;28;20030;-61
2024/03/21 13:01:26;;;;;;;3.92;1.50;;;;;;;;;;4998807;28;20100;-61
2024/03/21 13:03:51;;;;;;;3.13;1.90;;;;;;;;;;5001038;28;20061;-61
2024/03/21 13:06:17;;;;;;;2.97;1.80;;;;;;;;;;5006572;28;20069;-61
2024/03/21 13:08:42;;;;;;;2.63;1.58;;;;;;;;;;5001148;28;20587;-61
2024/03/21 13:11:07;;;;;;;3.38;1.90;;;;;;;;;;4999038;28;20034;-61
2024/03/21 13:13:33;;;;;;;2.97;1.70;;;;;;;;;;4999781;28;20541;-61
2024/03/21 13:15:59;;;;;;;3.03;1.77;;;;;;;;;;4998812;28;20140;-61
2024/03/21 13:18:25;;;;;;;2.85;1.60;;;;;;;;;;4997035;28;20786;-60
2024/03/21 13:20:50;;;;;;;2.85;1.77;;;;;;;;;;5000433;28;20042;-60
2024/03/21 13:23:15;;;;;;;2.78;1.63;;;;;;;;;;4998889;28;20030;-62
2024/03/21 13:25:41;;;;;;;3.10;1.70;;;;;;;;;;4999382;28;20550;-62
2024/03/21 13:28:06;;;;;;;2.75;1.50;;;;;;;;;;4998064;28;20022;-61
2024/03/21 13:30:32;;;;;;;2.80;1.65;;;;;;;;;;4997768;28;20525;-61
2024/03/21 13:32:58;;;;;;;2.83;1.60;;;;;;;;;;4999796;28;20100;-61
2024/03/21 13:35:24;;;;;;;2.58;1.40;;;;;;;;;;4998521;28;20198;-61
2024/03/21 13:37:49;;;;;;;2.25;1.40;;;;;;;;;;4997980;28;20129;-61
2024/03/21 13:40:15;;;;;;;2.55;1.48;;;;;;;;;;4999496;28;20057;-61
2024/03/21 13:42:40;;;;;;;3.55;1.65;;;;;;;;;;4998238;28;20045;-61
2024/03/21 13:45:08;;;;;;;2.88;1.60;;;;;;;;;;4999371;28;20041;-61
2024/03/21 13:47:35;;;;;;;3.70;1.70;;;;;;;;;;4999186;28;20057;-60
2024/03/21 13:50:00;;;;;;;2.20;1.40;;;;;;;;;;4998083;28;20076;-60
2024/03/21 13:52:44;;;;;;;3.03;1.33;;;;;;;;;;4998821;28;20042;-62
2024/03/21 13:55:09;;;;;;;2.20;1.20;;;;;;;;;;4989709;28;20038;-62
2024/03/21 13:57:35;;;;;;;2.50;1.17;;;;;;;;;;4994425;28;20057;-61
2024/03/21 14:00:09;;;;;;;2.70;1.35;;;;;;;;;;5004816;28;20042;-61
2024/03/21 14:02:35;;;;;;;2.50;1.10;;;;;;;;;;5005369;28;20038;-60
2024/03/21 14:05:01;;;;;;;2.53;1.27;;;;;;;;;;5005414;28;20033;-61
2024/03/21 14:07:26;;;;;;;4.22;1.20;;;;;;;;;;4989398;28;20596;-61
2024/03/21 14:09:52;;;;;;;1.70;1.05;;;;;;;;;;4993409;28;20131;-61
2024/03/21 14:12:17;;;;;;;2.35;1.30;;;;;;;;;;5001467;28;20088;-61
2024/03/21 14:14:42;;;;;;;3.28;1.50;;;;;;;;;;5003605;28;20124;-63
2024/03/21 14:17:08;;;;;;;2.67;1.38;;;;;;;;;;5000309;28;20022;-61
2024/03/21 14:19:33;;;;;;;2.10;1.15;;;;;;;;;;5004578;28;20034;-61
2024/03/21 14:21:58;;;;;;;3.40;1.30;;;;;;;;;;5003933;28;20056;-62
2024/03/21 14:24:24;;;;;;;1.83;1.15;;;;;;;;;;5004800;28;20034;-62
2024/03/21 14:26:49;;;;;;;2.90;1.55;;;;;;;;;;5003414;28;20448;-61
2024/03/21 14:29:14;;;;;;;3.38;1.55;;;;;;;;;;5004474;28;20060;-61
2024/03/21 14:31:40;;;;;;;2.67;1.42;;;;;;;;;;5003614;28;20045;-59
2024/03/21 14:34:06;;;;;;;3.05;1.50;;;;;;;;;;5000320;28;20042;-60
2024/03/21 14:36:34;;;;;;;3.70;1.80;;;;;;;;;;5000144;28;20041;-60
2024/03/21 14:39:00;;;;;;;3.53;1.40;;;;;;;;;;4988365;28;20038;-60